Arcata, CA

6:51 PM PDT en Septiembre 01, 2014 (GMT -0700)
Arcata | Change Station
CLOSE
Current Station
Aeropuerto
Location: Arcata,
Altura: 217 ft
Estaciones meteorológicas cercanas

Alt 217 ft 40.98 °N, 124.10 °W | Updated 58 minutes ago

Clear
Despejado
63 ° F
Sensación térmica 63 ° F
N
6
Viento Variable Viento desde ONO

Hoy
Alta -- | Baja -- ° F
--% Posibilidad de precipitaciones
Ayer
Alta -- | Baja -- ° F
Precip. -- pul
6:43 AM 7:48 PM
Creciente, 46% visible
Presión 29.90 pul
Visibilidad 10.0 Millas
Nubes Despejado
Punto de rocío 54 ° F
Humedad 72%
Precipitaciones 0.00 pul
Espesor de la nieve No disponible.
UV 1 de una escala de 12
Polen 8.70 de una escala de 12
Calidad del aire No disponible.
Flu Activity No disponible.
METAR KACV 020053Z AUTO 29005KT 10SM CLR 17/12 A2988 RMK AO2 SLP124 T01720122

More Conditions Fewer Conditions

Presión 29.90 pul
Visibilidad 10.0 Millas
Nubes Despejado
Punto de rocío 54 ° F
Humedad 72%
Precipitaciones 0.00 pul
Espesor de la nieve No disponible.
UV 1 de una escala de 12
Polen 8.70 de una escala de 12
Calidad del aire No disponible.
Flu Activity No disponible.
METAR KACV 020053Z AUTO 29005KT 10SM CLR 17/12 A2988 RMK AO2 SLP124 T01720122

More Conditions Fewer Conditions

10-Day Weather Forecast

Almanac

Astronomía

Sep. 01, 2014 Salida Puesta
Hora real 6:43 AM PDT 7:48 PM PDT
Crepúsculo civil 6:15 AM PDT 8:16 PM PDT
Crepúsculo náutico 5:41 AM PDT 8:50 PM PDT
Crepúsculo astronómico 5:06 AM PDT 9:25 PM PDT
Luna 1:37 PM PDT (9/1) 11:51 PM PDT (9/1)
Horas de luz 14h 01m
Horas de luz
13h 05m
Tomorrow will be 2m 36s shorter.
Creciente, 46% of the Moon is Illuminated
Hoy
Creciente
Sep 2
Cuarto creciente
Sep 8
Luna llena
Sep 15
Cuarto menguante
Sep 24
Nueva

Extremos de hoy

Máximos del estado Bajos del estado

Community

WunderPhotos

Upload Photos

1,749,476 ¡fotos cargadas!

Nearby

Grosos de nieve

Estación Profundido Altura
Adin Mountain 1 in 6200 ft

Actividad de terremotos

Ciudad Distance Mag. Tiempo y dato
No hay informes recientes de la actividad sísmica.
Magnitud mínima muestra es 2,5.

Temperaturas de aguas costeras

Lugar Temperatura
Crescent City, CA 57.0 ° F
North Spit, CA 57.0 ° F
Port Orford, OR 52.0 ° F

Estaciones meteorológicas cercanas